sensor_id;sensor_type;location;lat;lon;timestamp;temperature;humidity
19263;DHT22;9765;52.354;20.884;2023-05-07T04:21:00;5.40;99.90
19263;DHT22;9765;52.354;20.884;2023-05-07T04:23:27;5.40;99.90
19263;DHT22;9765;52.354;20.884;2023-05-07T04:25:54;5.40;99.90
19263;DHT22;9765;52.354;20.884;2023-05-07T04:28:21;5.40;99.90
19263;DHT22;9765;52.354;20.884;2023-05-07T04:30:48;5.40;99.90
19263;DHT22;9765;52.354;20.884;2023-05-07T04:33:15;5.50;99.90
19263;DHT22;9765;52.354;20.884;2023-05-07T04:35:42;5.50;99.90
19263;DHT22;9765;52.354;20.884;2023-05-07T04:38:14;5.60;99.90
19263;DHT22;9765;52.354;20.884;2023-05-07T04:40:42;5.50;99.90
19263;DHT22;9765;52.354;20.884;2023-05-07T04:43:08;5.60;99.90
19263;DHT22;9765;52.354;20.884;2023-05-07T04:45:35;5.60;99.90
19263;DHT22;9765;52.354;20.884;2023-05-07T04:48:04;5.60;99.90
19263;DHT22;9765;52.354;20.884;2023-05-07T04:50:31;5.60;99.90
19263;DHT22;9765;52.354;20.884;2023-05-07T04:53:00;5.70;99.90
19263;DHT22;9765;52.354;20.884;2023-05-07T04:55:37;5.70;99.90
19263;DHT22;9765;52.354;20.884;2023-05-07T04:58:03;5.70;99.90
19263;DHT22;9765;52.354;20.884;2023-05-07T05:00:31;5.80;99.90
19263;DHT22;9765;52.354;20.884;2023-05-07T05:02:58;5.80;99.90
19263;DHT22;9765;52.354;20.884;2023-05-07T05:05:27;5.80;99.90
19263;DHT22;9765;52.354;20.884;2023-05-07T05:07:54;5.90;99.90
19263;DHT22;9765;52.354;20.884;2023-05-07T05:10:25;6.00;99.90
19263;DHT22;9765;52.354;20.884;2023-05-07T05:12:55;6.00;99.90
19263;DHT22;9765;52.354;20.884;2023-05-07T05:15:21;6.00;99.90
19263;DHT22;9765;52.354;20.884;2023-05-07T05:17:48;6.10;99.90
19263;DHT22;9765;52.354;20.884;2023-05-07T05:20:15;6.10;99.90
19263;DHT22;9765;52.354;20.884;2023-05-07T05:22:42;6.10;99.90
19263;DHT22;9765;52.354;20.884;2023-05-07T05:25:10;6.10;99.90
19263;DHT22;9765;52.354;20.884;2023-05-07T05:27:39;6.10;99.90
19263;DHT22;9765;52.354;20.884;2023-05-07T05:30:08;6.20;99.90
19263;DHT22;9765;52.354;20.884;2023-05-07T05:32:38;6.20;99.90
19263;DHT22;9765;52.354;20.884;2023-05-07T05:35:05;6.10;99.90
19263;DHT22;9765;52.354;20.884;2023-05-07T05:37:32;6.20;99.90
19263;DHT22;9765;52.354;20.884;2023-05-07T05:39:59;6.20;99.90
19263;DHT22;9765;52.354;20.884;2023-05-07T05:42:30;6.20;99.90
19263;DHT22;9765;52.354;20.884;2023-05-07T05:44:58;6.30;99.90
19263;DHT22;9765;52.354;20.884;2023-05-07T05:47:28;6.30;99.90
19263;DHT22;9765;52.354;20.884;2023-05-07T05:49:58;6.30;99.90
19263;DHT22;9765;52.354;20.884;2023-05-07T05:52:25;6.30;99.90
19263;DHT22;9765;52.354;20.884;2023-05-07T05:54:53;6.30;99.90
19263;DHT22;9765;52.354;20.884;2023-05-07T05:57:20;6.30;99.90
19263;DHT22;9765;52.354;20.884;2023-05-07T05:59:47;6.30;99.90
19263;DHT22;9765;52.354;20.884;2023-05-07T06:02:13;6.40;99.90
19263;DHT22;9765;52.354;20.884;2023-05-07T06:04:41;6.50;99.90
19263;DHT22;9765;52.354;20.884;2023-05-07T06:07:08;6.60;99.90
19263;DHT22;9765;52.354;20.884;2023-05-07T06:09:35;6.60;99.90
19263;DHT22;9765;52.354;20.884;2023-05-07T06:12:07;6.70;99.90
19263;DHT22;9765;52.354;20.884;2023-05-07T06:14:36;6.70;99.90
19263;DHT22;9765;52.354;20.884;2023-05-07T06:17:06;6.70;99.90
19263;DHT22;9765;52.354;20.884;2023-05-07T06:19:33;6.80;99.90
19263;DHT22;9765;52.354;20.884;2023-05-07T06:22:04;6.70;99.90
19263;DHT22;9765;52.354;20.884;2023-05-07T06:24:31;6.70;99.90
19263;DHT22;9765;52.354;20.884;2023-05-07T06:26:57;6.80;99.90
19263;DHT22;9765;52.354;20.884;2023-05-07T06:29:25;6.80;99.90
19263;DHT22;9765;52.354;20.884;2023-05-07T06:31:52;6.80;99.90
19263;DHT22;9765;52.354;20.884;2023-05-07T06:34:18;6.90;99.90
19263;DHT22;9765;52.354;20.884;2023-05-07T06:36:45;7.00;99.90
19263;DHT22;9765;52.354;20.884;2023-05-07T06:39:13;7.10;99.90
19263;DHT22;9765;52.354;20.884;2023-05-07T06:41:40;7.00;99.90
19263;DHT22;9765;52.354;20.884;2023-05-07T06:44:08;7.00;99.90
19263;DHT22;9765;52.354;20.884;2023-05-07T06:46:35;7.10;99.90
19263;DHT22;9765;52.354;20.884;2023-05-07T06:49:01;7.10;99.90
19263;DHT22;9765;52.354;20.884;2023-05-07T06:51:30;7.10;99.90
19263;DHT22;9765;52.354;20.884;2023-05-07T06:53:57;7.20;99.90
19263;DHT22;9765;52.354;20.884;2023-05-07T06:56:25;7.20;99.90
19263;DHT22;9765;52.354;20.884;2023-05-07T06:58:52;7.20;99.90
19263;DHT22;9765;52.354;20.884;2023-05-07T07:01:18;7.20;99.90
19263;DHT22;9765;52.354;20.884;2023-05-07T07:03:47;7.30;99.90
19263;DHT22;9765;52.354;20.884;2023-05-07T07:06:14;7.40;99.90
19263;DHT22;9765;52.354;20.884;2023-05-07T07:08:41;7.40;99.90
19263;DHT22;9765;52.354;20.884;2023-05-07T07:11:08;7.50;99.90
19263;DHT22;9765;52.354;20.884;2023-05-07T07:13:36;7.50;99.90
19263;DHT22;9765;52.354;20.884;2023-05-07T07:16:04;7.50;99.90
19263;DHT22;9765;52.354;20.884;2023-05-07T07:18:33;7.60;99.90
19263;DHT22;9765;52.354;20.884;2023-05-07T07:21:01;7.80;99.90
19263;DHT22;9765;52.354;20.884;2023-05-07T07:23:28;7.80;99.90
19263;DHT22;9765;52.354;20.884;2023-05-07T07:25:54;7.80;99.90
19263;DHT22;9765;52.354;20.884;2023-05-07T07:28:21;7.80;99.90
19263;DHT22;9765;52.354;20.884;2023-05-07T07:30:54;7.80;99.90
19263;DHT22;9765;52.354;20.884;2023-05-07T07:33:26;7.80;99.90
19263;DHT22;9765;52.354;20.884;2023-05-07T07:35:55;7.80;99.90
19263;DHT22;9765;52.354;20.884;2023-05-07T07:38:22;7.90;99.90
19263;DHT22;9765;52.354;20.884;2023-05-07T07:40:49;8.10;99.90
19263;DHT22;9765;52.354;20.884;2023-05-07T07:43:17;7.80;99.90
19263;DHT22;9765;52.354;20.884;2023-05-07T07:45:47;7.90;99.90
19263;DHT22;9765;52.354;20.884;2023-05-07T07:48:18;7.90;99.90
19263;DHT22;9765;52.354;20.884;2023-05-07T07:50:51;7.90;99.90
19263;DHT22;9765;52.354;20.884;2023-05-07T07:53:19;8.00;99.90
19263;DHT22;9765;52.354;20.884;2023-05-07T07:55:46;8.10;99.90
19263;DHT22;9765;52.354;20.884;2023-05-07T07:58:13;8.10;99.90
19263;DHT22;9765;52.354;20.884;2023-05-07T08:00:40;8.20;99.90
19263;DHT22;9765;52.354;20.884;2023-05-07T08:03:09;8.30;99.90
19263;DHT22;9765;52.354;20.884;2023-05-07T08:05:38;8.30;99.90
19263;DHT22;9765;52.354;20.884;2023-05-07T08:08:05;8.50;99.90
19263;DHT22;9765;52.354;20.884;2023-05-07T08:10:32;8.30;99.90
19263;DHT22;9765;52.354;20.884;2023-05-07T08:13:00;8.50;99.90
19263;DHT22;9765;52.354;20.884;2023-05-07T08:15:28;8.50;99.90
19263;DHT22;9765;52.354;20.884;2023-05-07T08:17:55;8.50;99.90
19263;DHT22;9765;52.354;20.884;2023-05-07T08:20:22;8.50;99.90
19263;DHT22;9765;52.354;20.884;2023-05-07T08:22:52;8.60;99.90
19263;DHT22;9765;52.354;20.884;2023-05-07T08:25:21;8.60;99.90
19263;DHT22;9765;52.354;20.884;2023-05-07T08:27:56;8.70;99.90
19263;DHT22;9765;52.354;20.884;2023-05-07T08:30:22;8.90;99.90
19263;DHT22;9765;52.354;20.884;2023-05-07T08:32:49;8.90;99.90
19263;DHT22;9765;52.354;20.884;2023-05-07T08:35:16;8.90;99.90
19263;DHT22;9765;52.354;20.884;2023-05-07T08:37:43;8.90;99.90
19263;DHT22;9765;52.354;20.884;2023-05-07T08:40:12;8.80;99.90
19263;DHT22;9765;52.354;20.884;2023-05-07T08:42:40;9.00;99.90
19263;DHT22;9765;52.354;20.884;2023-05-07T08:45:11;9.00;99.90
19263;DHT22;9765;52.354;20.884;2023-05-07T08:47:43;9.00;99.90
19263;DHT22;9765;52.354;20.884;2023-05-07T08:50:13;9.10;99.90
19263;DHT22;9765;52.354;20.884;2023-05-07T08:52:41;9.20;99.90
19263;DHT22;9765;52.354;20.884;2023-05-07T08:55:12;9.30;99.90
19263;DHT22;9765;52.354;20.884;2023-05-07T08:57:39;9.20;99.90
19263;DHT22;9765;52.354;20.884;2023-05-07T09:00:07;9.30;99.90
19263;DHT22;9765;52.354;20.884;2023-05-07T09:02:35;9.20;99.90
19263;DHT22;9765;52.354;20.884;2023-05-07T09:05:04;9.30;99.90
19263;DHT22;9765;52.354;20.884;2023-05-07T09:07:31;9.40;99.90
19263;DHT22;9765;52.354;20.884;2023-05-07T09:10:01;9.50;99.90
19263;DHT22;9765;52.354;20.884;2023-05-07T09:12:35;9.70;99.90
19263;DHT22;9765;52.354;20.884;2023-05-07T09:15:09;9.80;99.90
19263;DHT22;9765;52.354;20.884;2023-05-07T09:17:35;9.90;99.90
19263;DHT22;9765;52.354;20.884;2023-05-07T09:20:05;10.00;99.90
19263;DHT22;9765;52.354;20.884;2023-05-07T09:22:36;9.90;99.90
19263;DHT22;9765;52.354;20.884;2023-05-07T09:25:03;9.90;99.90
19263;DHT22;9765;52.354;20.884;2023-05-07T09:27:34;9.90;99.90
19263;DHT22;9765;52.354;20.884;2023-05-07T09:30:03;10.10;99.90
19263;DHT22;9765;52.354;20.884;2023-05-07T09:32:34;10.00;99.90
19263;DHT22;9765;52.354;20.884;2023-05-07T09:35:02;10.00;99.90
19263;DHT22;9765;52.354;20.884;2023-05-07T09:37:30;9.90;99.90
19263;DHT22;9765;52.354;20.884;2023-05-07T09:39:57;9.90;99.90
19263;DHT22;9765;52.354;20.884;2023-05-07T09:42:29;9.90;99.90
19263;DHT22;9765;52.354;20.884;2023-05-07T09:44:57;10.00;99.90
19263;DHT22;9765;52.354;20.884;2023-05-07T09:47:30;10.40;99.90
19263;DHT22;9765;52.354;20.884;2023-05-07T09:49:59;10.60;99.90
19263;DHT22;9765;52.354;20.884;2023-05-07T09:52:30;10.60;99.90
19263;DHT22;9765;52.354;20.884;2023-05-07T09:55:03;10.50;99.90
19263;DHT22;9765;52.354;20.884;2023-05-07T09:57:32;10.40;99.90
19263;DHT22;9765;52.354;20.884;2023-05-07T10:00:03;10.40;99.90
19263;DHT22;9765;52.354;20.884;2023-05-07T10:02:36;10.40;99.90
19263;DHT22;9765;52.354;20.884;2023-05-07T10:05:05;10.60;99.90
19263;DHT22;9765;52.354;20.884;2023-05-07T10:07:35;10.90;99.90
19263;DHT22;9765;52.354;20.884;2023-05-07T10:10:05;11.30;99.90
19263;DHT22;9765;52.354;20.884;2023-05-07T10:12:32;11.50;99.90
19263;DHT22;9765;52.354;20.884;2023-05-07T10:15:07;11.60;99.90
19263;DHT22;9765;52.354;20.884;2023-05-07T10:17:37;11.50;99.90
19263;DHT22;9765;52.354;20.884;2023-05-07T10:20:05;11.30;99.90
19263;DHT22;9765;52.354;20.884;2023-05-07T10:22:38;11.20;99.90
19263;DHT22;9765;52.354;20.884;2023-05-07T10:25:07;11.10;99.90
19263;DHT22;9765;52.354;20.884;2023-05-07T10:27:36;11.00;99.90
19263;DHT22;9765;52.354;20.884;2023-05-07T10:30:12;11.00;99.90
19263;DHT22;9765;52.354;20.884;2023-05-07T10:32:47;11.00;99.90
19263;DHT22;9765;52.354;20.884;2023-05-07T10:35:20;10.90;99.90
19263;DHT22;9765;52.354;20.884;2023-05-07T10:37:52;10.90;99.90
19263;DHT22;9765;52.354;20.884;2023-05-07T10:40:22;11.10;99.90
19263;DHT22;9765;52.354;20.884;2023-05-07T10:42:56;11.40;99.90
19263;DHT22;9765;52.354;20.884;2023-05-07T10:45:27;11.60;99.90
19263;DHT22;9765;52.354;20.884;2023-05-07T10:48:11;11.60;99.90
19263;DHT22;9765;52.354;20.884;2023-05-07T10:50:41;11.60;99.90
19263;DHT22;9765;52.354;20.884;2023-05-07T10:53:23;11.30;99.90
19263;DHT22;9765;52.354;20.884;2023-05-07T10:59:32;11.50;99.90
19263;DHT22;9765;52.354;20.884;2023-05-07T11:02:02;11.70;99.90
19263;DHT22;9765;52.354;20.884;2023-05-07T11:04:30;11.60;99.90
19263;DHT22;9765;52.354;20.884;2023-05-07T11:07:27;11.60;99.90
19263;DHT22;9765;52.354;20.884;2023-05-07T11:10:02;11.60;99.90
19263;DHT22;9765;52.354;20.884;2023-05-07T11:12:49;11.40;99.90
19263;DHT22;9765;52.354;20.884;2023-05-07T11:15:39;11.20;99.90
19263;DHT22;9765;52.354;20.884;2023-05-07T11:18:10;11.20;99.90
19263;DHT22;9765;52.354;20.884;2023-05-07T11:20:58;11.40;99.90
19263;DHT22;9765;52.354;20.884;2023-05-07T11:23:56;11.50;99.90
19263;DHT22;9765;52.354;20.884;2023-05-07T11:26:24;11.50;99.90
19263;DHT22;9765;52.354;20.884;2023-05-07T11:28:54;11.60;99.90
19263;DHT22;9765;52.354;20.884;2023-05-07T11:31:27;11.50;99.90
19263;DHT22;9765;52.354;20.884;2023-05-07T11:33:57;11.50;99.90
19263;DHT22;9765;52.354;20.884;2023-05-07T11:36:24;11.40;99.90
19263;DHT22;9765;52.354;20.884;2023-05-07T11:38:52;11.30;99.90
19263;DHT22;9765;52.354;20.884;2023-05-07T11:41:21;11.30;99.90
19263;DHT22;9765;52.354;20.884;2023-05-07T11:43:55;11.20;99.90
19263;DHT22;9765;52.354;20.884;2023-05-07T11:46:26;11.30;99.90
19263;DHT22;9765;52.354;20.884;2023-05-07T11:48:53;11.40;99.90
19263;DHT22;9765;52.354;20.884;2023-05-07T11:51:25;11.40;99.90
19263;DHT22;9765;52.354;20.884;2023-05-07T11:53:55;11.40;99.90
19263;DHT22;9765;52.354;20.884;2023-05-07T11:56:24;11.50;99.90
19263;DHT22;9765;52.354;20.884;2023-05-07T11:58:50;11.40;99.90
19263;DHT22;9765;52.354;20.884;2023-05-07T12:01:22;11.50;99.90
19263;DHT22;9765;52.354;20.884;2023-05-07T12:03:49;11.70;99.90
19263;DHT22;9765;52.354;20.884;2023-05-07T12:06:16;11.80;99.90
19263;DHT22;9765;52.354;20.884;2023-05-07T12:08:47;11.80;99.90
19263;DHT22;9765;52.354;20.884;2023-05-07T12:11:21;11.60;99.90
19263;DHT22;9765;52.354;20.884;2023-05-07T12:13:53;11.60;99.90
19263;DHT22;9765;52.354;20.884;2023-05-07T12:16:20;11.60;99.90
19263;DHT22;9765;52.354;20.884;2023-05-07T12:18:47;11.60;99.90
19263;DHT22;9765;52.354;20.884;2023-05-07T12:21:15;11.60;99.90
19263;DHT22;9765;52.354;20.884;2023-05-07T12:23:47;11.70;99.90
19263;DHT22;9765;52.354;20.884;2023-05-07T12:26:16;11.80;99.90
19263;DHT22;9765;52.354;20.884;2023-05-07T12:28:44;11.80;99.90
19263;DHT22;9765;52.354;20.884;2023-05-07T12:31:15;11.80;99.90
19263;DHT22;9765;52.354;20.884;2023-05-07T12:33:46;11.60;99.90
19263;DHT22;9765;52.354;20.884;2023-05-07T12:36:14;11.60;99.90
19263;DHT22;9765;52.354;20.884;2023-05-07T12:38:41;11.60;99.90
19263;DHT22;9765;52.354;20.884;2023-05-07T12:41:10;11.60;99.90
19263;DHT22;9765;52.354;20.884;2023-05-07T12:43:46;11.90;99.90
19263;DHT22;9765;52.354;20.884;2023-05-07T12:46:12;11.90;99.90
19263;DHT22;9765;52.354;20.884;2023-05-07T12:48:46;11.80;99.90
19263;DHT22;9765;52.354;20.884;2023-05-07T12:51:16;11.60;99.90
19263;DHT22;9765;52.354;20.884;2023-05-07T12:53:43;12.00;99.90
19263;DHT22;9765;52.354;20.884;2023-05-07T12:56:11;11.90;99.90
19263;DHT22;9765;52.354;20.884;2023-05-07T12:58:42;12.00;99.90
19263;DHT22;9765;52.354;20.884;2023-05-07T13:01:09;12.40;99.90
19263;DHT22;9765;52.354;20.884;2023-05-07T13:03:40;12.50;99.90
19263;DHT22;9765;52.354;20.884;2023-05-07T13:06:09;12.50;99.90
19263;DHT22;9765;52.354;20.884;2023-05-07T13:08:39;12.30;99.90
19263;DHT22;9765;52.354;20.884;2023-05-07T13:11:08;12.40;99.90
19263;DHT22;9765;52.354;20.884;2023-05-07T13:13:38;12.60;99.90
19263;DHT22;9765;52.354;20.884;2023-05-07T13:16:08;12.80;99.90
19263;DHT22;9765;52.354;20.884;2023-05-07T13:18:39;12.80;99.90
19263;DHT22;9765;52.354;20.884;2023-05-07T13:21:11;12.80;99.90
19263;DHT22;9765;52.354;20.884;2023-05-07T13:23:39;12.90;99.90
19263;DHT22;9765;52.354;20.884;2023-05-07T13:26:05;13.00;99.90
19263;DHT22;9765;52.354;20.884;2023-05-07T13:28:34;13.10;99.90
19263;DHT22;9765;52.354;20.884;2023-05-07T13:31:05;13.00;99.90
19263;DHT22;9765;52.354;20.884;2023-05-07T13:33:31;13.10;99.90
19263;DHT22;9765;52.354;20.884;2023-05-07T13:36:00;13.10;99.90
19263;DHT22;9765;52.354;20.884;2023-05-07T13:38:29;13.20;99.90
19263;DHT22;9765;52.354;20.884;2023-05-07T13:40:56;13.30;99.90
19263;DHT22;9765;52.354;20.884;2023-05-07T13:43:23;13.20;99.90
19263;DHT22;9765;52.354;20.884;2023-05-07T13:45:52;13.10;99.90
19263;DHT22;9765;52.354;20.884;2023-05-07T13:48:23;13.20;99.90
19263;DHT22;9765;52.354;20.884;2023-05-07T13:50:50;13.10;99.90
19263;DHT22;9765;52.354;20.884;2023-05-07T13:53:17;13.10;99.90
19263;DHT22;9765;52.354;20.884;2023-05-07T13:55:49;13.10;99.90
19263;DHT22;9765;52.354;20.884;2023-05-07T13:58:16;13.00;99.90
19263;DHT22;9765;52.354;20.884;2023-05-07T14:00:43;13.00;99.90
19263;DHT22;9765;52.354;20.884;2023-05-07T14:03:10;12.90;99.90
19263;DHT22;9765;52.354;20.884;2023-05-07T14:05:38;12.70;99.90
19263;DHT22;9765;52.354;20.884;2023-05-07T14:08:05;12.70;99.90
19263;DHT22;9765;52.354;20.884;2023-05-07T14:10:33;12.90;99.90
19263;DHT22;9765;52.354;20.884;2023-05-07T14:13:00;13.00;99.90
19263;DHT22;9765;52.354;20.884;2023-05-07T14:15:29;13.00;99.90
19263;DHT22;9765;52.354;20.884;2023-05-07T14:17:59;13.00;99.90
19263;DHT22;9765;52.354;20.884;2023-05-07T14:20:26;12.90;99.90
19263;DHT22;9765;52.354;20.884;2023-05-07T14:22:54;12.90;99.90
19263;DHT22;9765;52.354;20.884;2023-05-07T14:25:24;12.90;99.90
19263;DHT22;9765;52.354;20.884;2023-05-07T14:27:50;13.00;99.90
19263;DHT22;9765;52.354;20.884;2023-05-07T14:30:19;13.10;99.90
19263;DHT22;9765;52.354;20.884;2023-05-07T14:32:52;13.10;99.90
19263;DHT22;9765;52.354;20.884;2023-05-07T14:35:18;12.80;99.90
19263;DHT22;9765;52.354;20.884;2023-05-07T14:37:45;12.70;99.90
19263;DHT22;9765;52.354;20.884;2023-05-07T14:40:13;12.60;99.90
19263;DHT22;9765;52.354;20.884;2023-05-07T14:42:40;12.80;99.90
19263;DHT22;9765;52.354;20.884;2023-05-07T14:45:08;12.90;99.90
19263;DHT22;9765;52.354;20.884;2023-05-07T14:47:35;12.80;99.90
19263;DHT22;9765;52.354;20.884;2023-05-07T14:50:05;12.70;99.90
19263;DHT22;9765;52.354;20.884;2023-05-07T14:52:35;12.80;99.90
19263;DHT22;9765;52.354;20.884;2023-05-07T14:55:05;12.60;99.90
19263;DHT22;9765;52.354;20.884;2023-05-07T14:57:33;12.60;99.90
19263;DHT22;9765;52.354;20.884;2023-05-07T15:00:05;12.50;99.90
19263;DHT22;9765;52.354;20.884;2023-05-07T15:02:33;12.60;99.90
19263;DHT22;9765;52.354;20.884;2023-05-07T15:05:05;12.50;99.90
19263;DHT22;9765;52.354;20.884;2023-05-07T15:07:32;12.40;99.90
19263;DHT22;9765;52.354;20.884;2023-05-07T15:09:59;12.50;99.90
19263;DHT22;9765;52.354;20.884;2023-05-07T15:12:26;12.50;99.90
19263;DHT22;9765;52.354;20.884;2023-05-07T15:14:54;12.50;99.90
19263;DHT22;9765;52.354;20.884;2023-05-07T15:17:21;12.50;99.90
19263;DHT22;9765;52.354;20.884;2023-05-07T15:19:48;12.40;99.90
19263;DHT22;9765;52.354;20.884;2023-05-07T15:22:17;12.40;99.90
19263;DHT22;9765;52.354;20.884;2023-05-07T15:24:43;12.30;99.90
19263;DHT22;9765;52.354;20.884;2023-05-07T15:27:12;12.20;99.90
19263;DHT22;9765;52.354;20.884;2023-05-07T15:29:38;12.20;99.90
19263;DHT22;9765;52.354;20.884;2023-05-07T15:32:06;12.20;99.90
19263;DHT22;9765;52.354;20.884;2023-05-07T15:34:33;12.30;99.90
19263;DHT22;9765;52.354;20.884;2023-05-07T15:37:00;12.40;99.90
19263;DHT22;9765;52.354;20.884;2023-05-07T15:39:30;12.40;99.90
19263;DHT22;9765;52.354;20.884;2023-05-07T15:41:56;12.30;99.90
19263;DHT22;9765;52.354;20.884;2023-05-07T15:44:23;12.40;99.90
19263;DHT22;9765;52.354;20.884;2023-05-07T15:46:55;12.40;99.90
19263;DHT22;9765;52.354;20.884;2023-05-07T15:49:24;12.40;99.90
19263;DHT22;9765;52.354;20.884;2023-05-07T15:51:50;12.40;99.90
19263;DHT22;9765;52.354;20.884;2023-05-07T15:54:19;12.30;99.90
19263;DHT22;9765;52.354;20.884;2023-05-07T15:56:46;12.40;99.90
19263;DHT22;9765;52.354;20.884;2023-05-07T15:59:13;12.30;99.90
19263;DHT22;9765;52.354;20.884;2023-05-07T16:01:42;12.50;99.90
19263;DHT22;9765;52.354;20.884;2023-05-07T16:04:09;12.30;99.90
19263;DHT22;9765;52.354;20.884;2023-05-07T16:06:40;12.40;99.90
19263;DHT22;9765;52.354;20.884;2023-05-07T16:09:09;12.40;99.90
19263;DHT22;9765;52.354;20.884;2023-05-07T16:11:36;12.30;99.90
19263;DHT22;9765;52.354;20.884;2023-05-07T16:14:03;12.30;99.90
19263;DHT22;9765;52.354;20.884;2023-05-07T16:16:32;12.30;99.90
19263;DHT22;9765;52.354;20.884;2023-05-07T16:19:01;12.20;99.90
19263;DHT22;9765;52.354;20.884;2023-05-07T16:21:29;12.20;99.90
19263;DHT22;9765;52.354;20.884;2023-05-07T16:24:01;12.20;99.90
19263;DHT22;9765;52.354;20.884;2023-05-07T16:26:30;12.30;99.90
19263;DHT22;9765;52.354;20.884;2023-05-07T16:28:57;12.20;99.90
19263;DHT22;9765;52.354;20.884;2023-05-07T16:31:24;12.20;99.90
19263;DHT22;9765;52.354;20.884;2023-05-07T16:33:51;12.20;99.90
19263;DHT22;9765;52.354;20.884;2023-05-07T16:36:17;12.30;99.90
19263;DHT22;9765;52.354;20.884;2023-05-07T16:38:44;12.30;99.90
19263;DHT22;9765;52.354;20.884;2023-05-07T16:41:12;12.30;99.90
19263;DHT22;9765;52.354;20.884;2023-05-07T16:43:41;12.20;99.90
19263;DHT22;9765;52.354;20.884;2023-05-07T16:46:07;12.30;99.90
19263;DHT22;9765;52.354;20.884;2023-05-07T16:48:38;12.30;99.90
19263;DHT22;9765;52.354;20.884;2023-05-07T16:51:07;12.40;99.90
19263;DHT22;9765;52.354;20.884;2023-05-07T16:53:33;12.30;99.90
19263;DHT22;9765;52.354;20.884;2023-05-07T16:56:04;12.20;99.90
19263;DHT22;9765;52.354;20.884;2023-05-07T16:58:35;12.20;99.90
19263;DHT22;9765;52.354;20.884;2023-05-07T17:01:04;12.10;99.90
19263;DHT22;9765;52.354;20.884;2023-05-07T17:03:31;12.10;99.90
19263;DHT22;9765;52.354;20.884;2023-05-07T17:05:58;12.00;99.90
19263;DHT22;9765;52.354;20.884;2023-05-07T17:08:25;12.00;99.90
19263;DHT22;9765;52.354;20.884;2023-05-07T17:10:53;11.90;99.90
19263;DHT22;9765;52.354;20.884;2023-05-07T17:13:19;11.80;99.90
19263;DHT22;9765;52.354;20.884;2023-05-07T17:15:47;11.80;99.90
19263;DHT22;9765;52.354;20.884;2023-05-07T17:18:14;11.70;99.90
19263;DHT22;9765;52.354;20.884;2023-05-07T17:20:41;11.70;99.90
19263;DHT22;9765;52.354;20.884;2023-05-07T17:23:08;11.60;99.90
19263;DHT22;9765;52.354;20.884;2023-05-07T17:25:35;11.50;99.90
19263;DHT22;9765;52.354;20.884;2023-05-07T17:28:02;11.40;99.90
19263;DHT22;9765;52.354;20.884;2023-05-07T17:30:29;11.30;99.90
19263;DHT22;9765;52.354;20.884;2023-05-07T17:32:57;11.20;99.90
19263;DHT22;9765;52.354;20.884;2023-05-07T17:35:23;11.20;99.90
19263;DHT22;9765;52.354;20.884;2023-05-07T17:37:51;11.10;99.90
19263;DHT22;9765;52.354;20.884;2023-05-07T17:40:20;11.00;99.90
19263;DHT22;9765;52.354;20.884;2023-05-07T17:42:47;10.90;99.90
19263;DHT22;9765;52.354;20.884;2023-05-07T17:45:14;10.90;99.90
19263;DHT22;9765;52.354;20.884;2023-05-07T17:47:43;10.80;99.90
19263;DHT22;9765;52.354;20.884;2023-05-07T17:50:12;10.70;99.90
19263;DHT22;9765;52.354;20.884;2023-05-07T17:52:40;10.60;99.90
19263;DHT22;9765;52.354;20.884;2023-05-07T17:55:07;10.50;99.90
19263;DHT22;9765;52.354;20.884;2023-05-07T17:57:36;10.50;99.90
19263;DHT22;9765;52.354;20.884;2023-05-07T18:00:04;10.40;99.90
19263;DHT22;9765;52.354;20.884;2023-05-07T18:02:32;10.40;99.90
19263;DHT22;9765;52.354;20.884;2023-05-07T18:04:59;10.30;99.90
19263;DHT22;9765;52.354;20.884;2023-05-07T18:07:27;10.20;99.90
19263;DHT22;9765;52.354;20.884;2023-05-07T18:09:53;10.10;99.90
19263;DHT22;9765;52.354;20.884;2023-05-07T18:12:23;10.10;99.90
